Time;durP1;ratioP1;P1;durP2;ratioP2;P2;SDS_P1;SDS_P2;PMS_P1;PMS_P2;Temp;Humidity;BMP_temperature;BMP_pressure;BME280_temperature;BME280_humidity;BME280_pressure;Samples;Min_cycle;Max_cycle;Signal;HPM_P1;HPM_P2
2022/09/30 00:01:18;;;;;;;10.87;7.23;;;;;;;3.57;100.00;100074.75;4971577;28;20217;-70
2022/09/30 00:03:44;;;;;;;10.50;7.10;;;;;;;3.65;100.00;100069.53;4968533;28;20218;-70
2022/09/30 00:06:11;;;;;;;10.50;7.00;;;;;;;3.59;100.00;100075.59;4969397;28;20214;-70
2022/09/30 00:08:38;;;;;;;10.03;6.90;;;;;;;3.49;100.00;100073.09;4954921;28;20226;-70
2022/09/30 00:11:09;;;;;;;10.60;6.90;;;;;;;3.54;100.00;100069.63;4968797;28;20265;-67
2022/09/30 00:13:38;;;;;;;9.37;6.53;;;;;;;3.54;100.00;100071.34;4963871;28;20289;-70
2022/09/30 00:16:07;;;;;;;8.53;6.83;;;;;;;3.55;100.00;100070.47;4974451;28;20285;-70
2022/09/30 00:18:33;;;;;;;10.40;6.93;;;;;;;3.55;100.00;100070.47;4968425;28;20583;-70
2022/09/30 00:21:00;;;;;;;8.63;6.10;;;;;;;3.42;100.00;100067.09;4969680;28;20211;-70
2022/09/30 00:23:27;;;;;;;8.77;6.20;;;;;;;3.39;100.00;100070.56;4975257;28;20610;-69
2022/09/30 00:25:58;;;;;;;8.90;6.13;;;;;;;3.44;100.00;100061.94;4970561;28;20442;-68
2022/09/30 00:28:24;;;;;;;8.73;6.13;;;;;;;3.41;100.00;100065.38;4973173;28;20230;-70
2022/09/30 00:30:51;;;;;;;11.17;6.93;;;;;;;3.39;100.00;100070.56;4977575;28;20361;-70
2022/09/30 00:33:19;;;;;;;8.53;6.80;;;;;;;3.40;100.00;100068.84;4974128;28;20206;-69
2022/09/30 00:35:46;;;;;;;7.70;6.33;;;;;;;3.36;100.00;100067.13;4969722;28;20190;-70
2022/09/30 00:38:13;;;;;;;9.07;6.40;;;;;;;3.34;100.00;100066.28;4971235;28;20310;-70
2022/09/30 00:40:39;;;;;;;8.60;5.90;;;;;;;3.23;100.00;100067.19;4973467;28;20213;-69
2022/09/30 00:43:13;;;;;;;8.67;5.63;;;;;;;2.82;100.00;100072.53;4973537;28;20202;-70
2022/09/30 00:45:49;;;;;;;7.70;5.67;;;;;;;2.93;100.00;100073.34;4969067;28;20720;-69
2022/09/30 00:48:20;;;;;;;9.57;7.03;;;;;;;2.76;100.00;100064.81;4970876;28;20229;-73
2022/09/30 00:50:54;;;;;;;8.90;6.13;;;;;;;2.95;100.00;100070.75;4971235;28;20206;-70
2022/09/30 00:53:25;;;;;;;8.13;5.27;;;;;;;3.09;100.00;100070.72;4971003;28;20240;-70
2022/09/30 00:55:59;;;;;;;9.93;6.00;;;;;;;3.15;100.00;100075.81;4968736;28;20198;-70
2022/09/30 00:58:30;;;;;;;8.83;5.77;;;;;;;3.25;100.00;100074.06;4973650;28;20221;-71
2022/09/30 01:01:00;;;;;;;8.77;5.60;;;;;;;3.30;100.00;100074.91;4973770;28;20795;-70
2022/09/30 01:03:31;;;;;;;6.73;4.57;;;;;;;3.15;100.00;100071.53;4973461;28;20212;-70
2022/09/30 01:05:58;;;;;;;7.10;5.03;;;;;;;2.97;100.00;100066.47;4976237;28;20265;-70
2022/09/30 01:08:25;;;;;;;9.37;6.20;;;;;;;2.62;100.00;100068.31;4957818;28;20233;-70
2022/09/30 01:10:52;;;;;;;8.77;5.20;;;;;;;2.86;100.00;100073.38;4975806;28;20282;-70
2022/09/30 01:13:21;;;;;;;9.17;5.80;;;;;;;2.93;100.00;100069.91;4966404;28;20212;-70
2022/09/30 01:16:05;;;;;;;7.97;4.73;;;;;;;2.91;100.00;100071.66;4977589;28;20257;-70
2022/09/30 01:18:50;;;;;;;13.97;6.07;;;;;;;2.80;100.00;100075.13;4970719;28;20272;-70
2022/09/30 01:21:50;;;;;;;6.33;4.87;;;;;;;2.98;100.00;100075.91;4971558;28;20197;-71
2022/09/30 01:24:38;;;;;;;8.97;4.90;;;;;;;2.82;100.00;100083.69;4956477;28;20214;-71
2022/09/30 01:27:47;;;;;;;7.67;4.77;;;;;;;2.86;100.00;100081.94;4972523;28;20222;-69
2022/09/30 01:30:18;;;;;;;5.40;4.67;;;;;;;2.92;100.00;100081.06;4973354;28;20202;-73
2022/09/30 01:33:16;;;;;;;9.17;5.40;;;;;;;3.02;100.00;100091.31;4970638;28;20560;-72
2022/09/30 01:36:01;;;;;;;9.13;5.60;;;;;;;2.98;100.00;100089.63;4970729;28;20200;-72
2022/09/30 01:38:30;;;;;;;8.03;4.73;;;;;;;2.88;100.00;100094.81;4969039;28;20221;-72
2022/09/30 01:41:06;;;;;;;8.83;5.23;;;;;;;2.94;100.00;100102.56;4970323;28;20213;-72
2022/09/30 01:43:44;;;;;;;8.00;5.30;;;;;;;2.78;100.00;100097.44;4972545;28;20574;-72
2022/09/30 01:46:21;;;;;;;8.83;5.10;;;;;;;3.00;100.00;100105.09;4971166;28;20721;-72
2022/09/30 01:48:57;;;;;;;7.17;5.53;;;;;;;3.00;100.00;100098.22;4966983;28;20280;-72
2022/09/30 01:51:32;;;;;;;8.53;5.30;;;;;;;3.01;100.00;100096.50;4970885;28;20205;-72
2022/09/30 01:54:05;;;;;;;8.53;5.43;;;;;;;3.06;100.00;100097.34;4969102;28;20225;-70
2022/09/30 01:56:39;;;;;;;6.53;4.60;;;;;;;2.98;100.00;100096.50;4964063;28;20201;-71
2022/09/30 01:59:10;;;;;;;8.97;5.33;;;;;;;3.03;100.00;100098.19;5021813;23;20310;-70
2022/09/30 02:01:45;;;;;;;9.73;5.80;;;;;;;3.00;100.00;100098.22;5000536;28;20228;-70
2022/09/30 02:04:18;;;;;;;6.13;4.87;;;;;;;3.05;100.00;100111.09;5001286;28;20200;-70
2022/09/30 02:06:51;;;;;;;6.53;5.23;;;;;;;3.14;100.00;100108.47;5000524;28;20761;-70
2022/09/30 02:09:23;;;;;;;8.27;5.43;;;;;;;3.16;100.00;100118.75;5000055;28;20201;-70
2022/09/30 02:11:51;;;;;;;8.60;5.07;;;;;;;3.17;100.00;100123.91;5020050;23;20263;-74
2022/09/30 02:14:23;;;;;;;6.50;5.00;;;;;;;3.14;100.00;100135.97;5006958;28;20211;-74
2022/09/30 02:16:58;;;;;;;7.50;5.57;;;;;;;2.91;100.00;100134.31;5006369;28;20220;-74
2022/09/30 02:19:33;;;;;;;6.30;5.00;;;;;;;2.88;100.00;100129.16;5005180;28;20208;-74
2022/09/30 02:22:03;;;;;;;7.07;5.10;;;;;;;3.06;100.00;100137.69;5003644;28;20219;-74
2022/09/30 02:24:35;;;;;;;5.93;4.93;;;;;;;2.98;100.00;100130.00;4992610;28;20205;-74
2022/09/30 02:27:04;;;;;;;6.70;5.20;;;;;;;3.05;100.00;100136.00;4991878;28;20315;-75
2022/09/30 02:29:35;;;;;;;10.10;5.70;;;;;;;2.96;100.00;100136.88;5001778;28;20207;-75
2022/09/30 02:32:05;;;;;;;8.97;5.70;;;;;;;2.74;100.00;100136.91;5002413;28;20224;-74
2022/09/30 02:34:39;;;;;;;8.27;5.67;;;;;;;2.83;100.00;100136.91;4983297;28;20256;-74
2022/09/30 02:37:09;;;;;;;7.30;5.13;;;;;;;2.88;100.00;100121.44;5003167;28;20211;-74
2022/09/30 02:39:41;;;;;;;6.90;4.87;;;;;;;2.84;100.00;100117.16;5004982;28;20204;-74
2022/09/30 02:42:14;;;;;;;8.27;5.00;;;;;;;2.86;100.00;100123.16;5002137;28;20224;-74
2022/09/30 02:44:40;;;;;;;6.63;4.73;;;;;;;2.87;100.00;100130.03;5004787;28;20715;-74
2022/09/30 02:47:12;;;;;;;6.43;4.70;;;;;;;2.96;100.00;100132.56;5001777;28;20228;-75
2022/09/30 02:49:47;;;;;;;5.30;4.30;;;;;;;2.81;100.00;100130.91;5002882;28;20471;-74
2022/09/30 02:52:22;;;;;;;6.40;4.90;;;;;;;2.83;100.00;100130.88;4990663;28;20228;-74
2022/09/30 02:54:58;;;;;;;6.43;4.67;;;;;;;2.69;100.00;100141.22;5002125;28;20203;-75
2022/09/30 02:57:35;;;;;;;7.17;4.97;;;;;;;2.57;100.00;100142.09;5002209;28;20215;-74
2022/09/30 03:00:02;;;;;;;11.47;5.27;;;;;;;2.78;100.00;100153.19;4991098;28;20708;-74
2022/09/30 03:02:29;;;;;;;6.37;4.70;;;;;;;2.76;100.00;100148.09;4996772;28;20224;-74
2022/09/30 03:04:56;;;;;;;5.83;4.50;;;;;;;2.75;100.00;100148.94;4997579;28;20220;-75
2022/09/30 03:07:24;;;;;;;7.90;4.87;;;;;;;2.57;100.00;100151.50;5000651;28;20228;-74
2022/09/30 03:09:56;;;;;;;6.10;4.13;;;;;;;2.61;100.00;100154.09;5001102;28;20258;-75
2022/09/30 03:12:43;;;;;;;4.40;3.60;;;;;;;2.64;100.00;100155.81;5000927;28;20228;-75
2022/09/30 03:15:30;;;;;;;6.10;4.10;;;;;;;2.64;100.00;100154.09;5001559;28;20723;-75
2022/09/30 03:18:09;;;;;;;7.37;4.30;;;;;;;2.49;100.00;100156.69;4988951;28;20569;-74
2022/09/30 03:21:01;;;;;;;5.50;4.27;;;;;;;2.56;100.00;100154.97;4999613;28;20199;-75
2022/09/30 03:23:45;;;;;;;5.90;4.43;;;;;;;2.53;100.00;100160.94;5006525;28;20686;-74
2022/09/30 03:26:21;;;;;;;6.27;3.90;;;;;;;2.45;100.00;100165.28;5004944;28;20312;-75
2022/09/30 03:28:55;;;;;;;6.40;4.57;;;;;;;2.52;100.00;100158.41;5000718;28;20201;-75
2022/09/30 03:31:32;;;;;;;6.20;4.03;;;;;;;2.55;100.00;100160.97;5003115;28;20467;-75
2022/09/30 03:34:09;;;;;;;7.63;4.30;;;;;;;2.36;100.00;100167.84;5006140;28;20203;-74
2022/09/30 03:36:42;;;;;;;6.40;4.40;;;;;;;2.41;100.00;100171.25;4995081;28;20204;-74
2022/09/30 03:39:21;;;;;;;6.47;4.33;;;;;;;2.45;100.00;100173.00;5002786;28;20275;-74
2022/09/30 03:41:54;;;;;;;11.33;6.07;;;;;;;2.48;100.00;100170.41;5001750;28;20224;-74
2022/09/30 03:44:25;;;;;;;9.03;5.27;;;;;;;2.55;100.00;100177.28;5005997;28;20208;-74
2022/09/30 03:46:56;;;;;;;7.60;4.87;;;;;;;2.50;100.00;100181.56;4998712;28;20628;-75
2022/09/30 03:49:27;;;;;;;10.10;5.93;;;;;;;2.41;100.00;100169.56;5008354;28;20199;-74
2022/09/30 03:51:56;;;;;;;9.17;5.83;;;;;;;2.38;100.00;100166.13;5006022;28;20231;-74
2022/09/30 03:54:23;;;;;;;9.87;6.17;;;;;;;2.41;100.00;100168.69;5003988;28;20192;-75
2022/09/30 03:56:50;;;;;;;9.57;5.93;;;;;;;2.15;100.00;100169.53;5004766;28;20232;-75
2022/09/30 03:59:22;;;;;;;8.77;5.47;;;;;;;2.24;100.00;100178.97;5005962;28;20211;-75
2022/09/30 04:01:49;;;;;;;7.50;5.13;;;;;;;2.29;100.00;100166.97;5006323;28;20269;-75
2022/09/30 04:04:15;;;;;;;6.80;4.90;;;;;;;2.20;100.00;100174.66;5006139;28;20203;-75
2022/09/30 04:06:42;;;;;;;6.47;4.43;;;;;;;2.44;100.00;100181.56;5001049;28;20223;-76
2022/09/30 04:09:09;;;;;;;9.83;5.53;;;;;;;2.38;100.00;100181.56;5004638;28;20212;-75
2022/09/30 04:11:37;;;;;;;6.43;5.03;;;;;;;2.30;100.00;100172.97;5001528;28;20235;-75
2022/09/30 04:14:04;;;;;;;6.67;4.53;;;;;;;2.31;100.00;100175.56;5003234;28;20200;-75
2022/09/30 04:16:32;;;;;;;6.13;4.10;;;;;;;2.25;100.00;100175.53;5005964;28;20278;-75
2022/09/30 04:18:58;;;;;;;8.90;5.03;;;;;;;2.21;100.00;100169.53;5007162;28;20212;-76
2022/09/30 04:21:24;;;;;;;6.57;3.60;;;;;;;2.19;100.00;100173.81;5006589;28;20224;-76
2022/09/30 04:23:51;;;;;;;6.37;4.10;;;;;;;2.26;100.00;100184.97;5007992;28;20200;-76
2022/09/30 04:26:19;;;;;;;8.30;5.23;;;;;;;2.16;100.00;100183.25;5009331;28;20223;-75
2022/09/30 04:28:46;;;;;;;6.20;4.37;;;;;;;2.18;100.00;100197.84;5006799;28;20730;-76
2022/09/30 04:31:16;;;;;;;9.23;4.17;;;;;;;2.10;100.00;100201.25;5011513;28;20207;-76
2022/09/30 04:33:43;;;;;;;6.93;4.43;;;;;;;1.77;100.00;100208.03;5009480;28;20212;-75
2022/09/30 04:36:10;;;;;;;6.93;5.43;;;;;;;1.97;100.00;100205.50;5006215;28;20554;-76
2022/09/30 04:38:36;;;;;;;8.50;4.60;;;;;;;2.01;100.00;100208.09;5010097;28;20200;-75
2022/09/30 04:41:05;;;;;;;7.20;4.80;;;;;;;2.17;100.00;100206.41;5010708;28;20258;-75
2022/09/30 04:43:34;;;;;;;9.40;5.27;;;;;;;2.14;100.00;100208.97;5011509;28;20310;-76
2022/09/30 04:46:00;;;;;;;8.93;5.27;;;;;;;2.09;100.00;100213.25;5004553;28;20276;-76
2022/09/30 04:48:27;;;;;;;4.90;4.23;;;;;;;2.17;100.00;100213.28;5009308;28;20205;-75
2022/09/30 04:50:54;;;;;;;6.37;4.20;;;;;;;2.20;100.00;100215.81;5001588;28;20212;-76
2022/09/30 04:53:20;;;;;;;6.40;4.33;;;;;;;2.28;100.00;100220.13;5000413;28;20264;-76
2022/09/30 04:55:46;;;;;;;7.63;4.67;;;;;;;2.03;100.00;100216.66;5007140;28;20211;-76
2022/09/30 04:58:14;;;;;;;5.93;4.60;;;;;;;1.80;100.00;100213.19;5009195;28;20268;-76
2022/09/30 05:00:41;;;;;;;9.87;5.90;;;;;;;1.75;100.00;100215.72;5005061;28;20208;-76
2022/09/30 05:03:08;;;;;;;8.23;5.83;;;;;;;1.74;100.00;100224.28;5010165;28;20224;-76
2022/09/30 05:05:34;;;;;;;11.83;5.67;;;;;;;1.99;100.00;100217.53;5009023;28;20206;-75
2022/09/30 05:08:02;;;;;;;8.13;5.83;;;;;;;2.03;100.00;100219.25;5010602;28;20593;-76
2022/09/30 05:10:29;;;;;;;6.80;4.60;;;;;;;2.00;100.00;100221.78;5011010;28;20204;-75
2022/09/30 05:12:56;;;;;;;6.30;4.17;;;;;;;2.14;100.00;100237.25;5011664;28;20231;-75
2022/09/30 05:15:23;;;;;;;5.97;3.73;;;;;;;2.12;100.00;100238.13;5006918;28;20282;-76
2022/09/30 05:17:51;;;;;;;5.50;4.43;;;;;;;1.97;100.00;100239.81;5004139;28;20673;-76
2022/09/30 05:20:17;;;;;;;8.07;4.67;;;;;;;1.96;100.00;100242.38;5005402;28;20207;-75
2022/09/30 05:22:44;;;;;;;8.40;4.73;;;;;;;2.17;100.00;100241.56;5008595;28;20231;-75
2022/09/30 05:25:10;;;;;;;12.37;6.80;;;;;;;1.99;100.00;100235.53;5010898;28;20200;-75
2022/09/30 05:27:37;;;;;;;12.20;6.20;;;;;;;2.01;100.00;100238.94;5010204;28;20227;-75
2022/09/30 05:30:05;;;;;;;13.27;7.10;;;;;;;2.02;100.00;100245.81;5010438;28;20581;-75
2022/09/30 05:32:31;;;;;;;13.43;7.23;;;;;;;2.28;100.00;100245.00;5003397;28;21351;-75
2022/09/30 05:35:02;;;;;;;12.93;7.03;;;;;;;2.20;100.00;100257.88;5005599;28;20207;-76
2022/09/30 05:37:28;;;;;;;16.47;7.60;;;;;;;2.19;100.00;100256.13;5011724;28;20196;-75
2022/09/30 05:39:55;;;;;;;8.27;5.73;;;;;;;2.24;100.00;100261.31;4989497;28;20192;-75
2022/09/30 05:42:22;;;;;;;10.83;5.77;;;;;;;2.30;100.00;100269.03;5002558;28;20263;-76
2022/09/30 05:44:48;;;;;;;8.33;6.07;;;;;;;2.41;100.00;100275.06;5008238;28;20201;-75
2022/09/30 05:47:14;;;;;;;12.70;6.50;;;;;;;2.31;100.00;100275.03;5007110;28;20220;-76
2022/09/30 05:49:41;;;;;;;12.40;6.37;;;;;;;1.99;100.00;100276.66;5008147;28;20213;-76
2022/09/30 05:52:08;;;;;;;14.70;6.13;;;;;;;2.00;100.00;100283.50;4990735;28;20255;-76
2022/09/30 05:54:35;;;;;;;14.17;6.73;;;;;;;2.25;100.00;100288.72;5012119;28;20205;-76
2022/09/30 05:57:01;;;;;;;10.73;6.10;;;;;;;2.36;100.00;100287.06;5010623;28;20666;-75
2022/09/30 05:59:27;;;;;;;15.77;7.03;;;;;;;2.38;100.00;100285.34;5006721;28;20232;-76
2022/09/30 06:01:54;;;;;;;10.20;6.90;;;;;;;2.44;100.00;100293.06;5005298;28;20213;-75
2022/09/30 06:04:21;;;;;;;11.90;7.87;;;;;;;2.30;100.00;100288.75;5007963;28;20739;-76
2022/09/30 06:06:48;;;;;;;12.83;8.73;;;;;;;2.46;100.00;100293.94;5002556;28;20213;-76
2022/09/30 06:09:15;;;;;;;11.50;7.97;;;;;;;2.43;100.00;100293.09;5009142;28;20200;-75
2022/09/30 06:11:42;;;;;;;13.27;8.53;;;;;;;2.50;100.00;100304.22;5003394;28;20220;-75
2022/09/30 06:14:08;;;;;;;14.00;8.97;;;;;;;2.61;100.00;100307.69;5012331;28;20193;-75
2022/09/30 06:16:35;;;;;;;13.27;7.53;;;;;;;2.72;100.00;100310.28;5011907;28;20201;-75
2022/09/30 06:19:01;;;;;;;11.37;8.03;;;;;;;2.88;100.00;100308.56;5016725;28;20196;-75
2022/09/30 06:21:28;;;;;;;13.07;7.60;;;;;;;3.08;100.00;100311.13;5004767;28;20547;-75
2022/09/30 06:23:55;;;;;;;14.87;8.10;;;;;;;2.98;100.00;100308.56;5007162;28;20258;-75
2022/09/30 06:26:22;;;;;;;12.30;6.77;;;;;;;3.05;100.00;100317.16;5008644;28;20210;-75
2022/09/30 06:28:50;;;;;;;11.60;7.67;;;;;;;2.95;100.00;100312.84;5008381;28;20483;-75
2022/09/30 06:31:16;;;;;;;17.13;9.37;;;;;;;3.14;100.00;100313.72;5000017;28;20276;-75
2022/09/30 06:33:43;;;;;;;15.13;10.30;;;;;;;3.35;100.00;100316.25;4991431;28;20683;-74
2022/09/30 06:36:09;;;;;;;18.13;9.13;;;;;;;3.39;100.00;100317.13;5008421;28;20200;-75
2022/09/30 06:38:38;;;;;;;17.63;9.77;;;;;;;3.66;100.00;100320.50;5008037;28;20197;-75
2022/09/30 06:41:06;;;;;;;11.80;8.67;;;;;;;3.91;100.00;100324.72;4990145;28;20204;-75
2022/09/30 06:43:34;;;;;;;13.47;9.37;;;;;;;4.08;100.00;100322.09;4997077;28;20506;-75
2022/09/30 06:46:00;;;;;;;17.33;9.60;;;;;;;4.27;100.00;100325.41;5010659;28;20672;-74
2022/09/30 06:48:28;;;;;;;14.23;9.27;;;;;;;4.42;100.00;100328.81;5008861;28;20217;-74
2022/09/30 06:50:57;;;;;;;16.30;9.30;;;;;;;4.51;100.00;100332.16;4991329;28;20633;-74
2022/09/30 06:53:23;;;;;;;12.93;8.17;;;;;;;4.60;100.00;100328.69;5000046;28;20213;-75
2022/09/30 06:55:55;;;;;;;16.13;9.00;;;;;;;4.72;100.00;100338.06;5003196;28;20203;-74
2022/09/30 06:58:23;;;;;;;12.23;8.30;;;;;;;4.87;100.00;100334.50;5007802;28;20212;-74
2022/09/30 07:00:57;;;;;;;14.87;10.23;;;;;;;4.96;100.00;100341.34;4991196;28;20203;-75
2022/09/30 07:03:27;;;;;;;13.37;9.80;;;;;;;5.05;100.00;100344.72;5000792;28;20227;-74
2022/09/30 07:05:58;;;;;;;14.43;9.83;;;;;;;5.15;100.00;100331.72;5003764;28;20204;-74
2022/09/30 07:08:28;;;;;;;12.33;9.13;;;;;;;5.21;100.00;100342.03;4988548;28;20236;-75
2022/09/30 07:10:54;;;;;;;13.30;9.00;;;;;;;5.40;100.00;100345.28;5007796;28;20217;-76
2022/09/30 07:13:21;;;;;;;12.93;9.13;;;;;;;5.55;100.00;100349.47;4983599;28;20247;-75
2022/09/30 07:15:51;;;;;;;14.83;10.40;;;;;;;5.65;100.00;100343.31;5004312;28;20665;-74
2022/09/30 07:18:19;;;;;;;16.17;11.10;;;;;;;5.77;100.00;100352.66;5002415;28;20243;-75
2022/09/30 07:20:48;;;;;;;17.13;10.73;;;;;;;5.82;100.00;100354.34;5001644;28;20234;-75
2022/09/30 07:23:15;;;;;;;18.33;11.67;;;;;;;5.93;100.00;100361.13;5001526;28;20731;-74
2022/09/30 07:25:49;;;;;;;21.23;12.87;;;;;;;5.97;100.00;100373.19;5007917;28;20201;-75
2022/09/30 07:28:15;;;;;;;19.63;13.33;;;;;;;6.09;100.00;100372.22;5006576;28;20692;-75
2022/09/30 07:30:42;;;;;;;27.50;16.23;;;;;;;6.21;100.00;100369.47;5008269;28;20501;-75
2022/09/30 07:33:09;;;;;;;29.67;16.47;;;;;;;6.29;100.00;100369.38;5001091;28;20702;-74
2022/09/30 07:35:37;;;;;;;26.07;15.80;;;;;;;6.38;100.00;100371.84;5001711;28;20200;-74
2022/09/30 07:38:04;;;;;;;19.07;13.53;;;;;;;6.52;100.00;100363.88;5001602;28;20201;-76
2022/09/30 07:40:31;;;;;;;25.67;14.40;;;;;;;6.64;100.00;100364.56;5001245;28;20208;-76
2022/09/30 07:42:57;;;;;;;19.13;13.47;;;;;;;6.79;100.00;100363.50;5004992;28;20226;-75
2022/09/30 07:45:23;;;;;;;28.47;15.73;;;;;;;6.82;100.00;100362.59;5000689;28;20205;-74
2022/09/30 07:47:50;;;;;;;25.97;15.57;;;;;;;6.86;100.00;100364.28;5004286;28;20211;-74
2022/09/30 07:50:16;;;;;;;22.60;14.17;;;;;;;6.95;100.00;100371.06;5001685;28;20207;-74
2022/09/30 07:52:44;;;;;;;24.20;14.40;;;;;;;7.01;100.00;100361.41;5000745;28;20227;-75
2022/09/30 07:55:11;;;;;;;27.93;15.30;;;;;;;7.10;100.00;100375.13;5007672;28;20325;-74
2022/09/30 07:57:37;;;;;;;23.63;14.90;;;;;;;7.20;100.00;100374.94;5002174;28;20205;-75
2022/09/30 08:00:05;;;;;;;29.63;16.27;;;;;;;7.27;100.00;100378.31;4994988;28;20668;-75
2022/09/30 08:02:37;;;;;;;28.93;16.03;;;;;;;7.42;100.00;100382.38;5012837;28;20227;-75
2022/09/30 08:05:05;;;;;;;31.00;15.97;;;;;;;7.49;100.00;100383.13;5005660;28;20212;-74
2022/09/30 08:07:31;;;;;;;30.83;16.60;;;;;;;7.65;100.00;100381.13;5004898;28;20864;-74
2022/09/30 08:09:59;;;;;;;27.70;15.57;;;;;;;7.79;100.00;100376.53;5010589;28;20213;-74
2022/09/30 08:12:25;;;;;;;35.53;17.43;;;;;;;7.96;100.00;100389.19;5024604;23;20241;-71
2022/09/30 08:14:51;;;;;;;28.17;16.27;;;;;;;8.13;100.00;100394.06;5019208;28;20200;-69
2022/09/30 08:17:18;;;;;;;32.93;17.43;;;;;;;8.17;100.00;100397.47;5013757;28;20200;-70
2022/09/30 08:19:44;;;;;;;37.30;19.03;;;;;;;8.28;100.00;100388.56;5015136;28;20199;-71
2022/09/30 08:22:12;;;;;;;31.20;18.60;;;;;;;8.40;100.00;100392.66;5014025;28;20227;-71
2022/09/30 08:24:39;;;;;;;31.70;18.33;;;;;;;8.57;100.00;100394.09;5017667;28;20266;-71
2022/09/30 08:27:06;;;;;;;34.13;18.83;;;;;;;8.64;100.00;100390.47;5010755;28;20215;-69
2022/09/30 08:29:33;;;;;;;37.33;20.13;;;;;;;8.67;100.00;100398.16;5016995;28;20204;-71
2022/09/30 08:31:59;;;;;;;37.03;19.10;;;;;;;8.67;100.00;100392.97;5013885;28;20200;-71
2022/09/30 08:34:26;;;;;;;34.10;17.80;;;;;;;8.66;100.00;100397.31;5018529;28;20196;-71
2022/09/30 08:36:52;;;;;;;34.73;17.87;;;;;;;8.73;100.00;100390.25;4997792;28;20215;-71
2022/09/30 08:39:18;;;;;;;34.93;18.67;;;;;;;8.76;100.00;100391.91;5019691;28;20207;-70
2022/09/30 08:42:06;;;;;;;33.83;18.20;;;;;;;8.79;100.00;100397.91;5013050;28;20200;-70
2022/09/30 08:44:45;;;;;;;31.67;17.17;;;;;;;8.76;100.00;100404.91;5019624;28;20267;-70
2022/09/30 08:47:31;;;;;;;33.13;16.87;;;;;;;8.73;100.00;100402.41;5020488;28;20675;-70
2022/09/30 08:50:07;;;;;;;33.20;16.53;;;;;;;8.90;100.00;100400.28;5012136;28;20598;-71
2022/09/30 08:52:37;;;;;;;28.60;15.13;;;;;;;9.01;100.00;100403.47;5002436;28;20212;-69
2022/09/30 08:55:05;;;;;;;34.47;18.73;;;;;;;9.13;100.00;100407.56;5017077;28;20200;-70
2022/09/30 08:57:39;;;;;;;33.37;17.17;;;;;;;9.24;100.00;100415.09;5018916;28;20196;-70
2022/09/30 09:00:11;;;;;;;31.43;18.10;;;;;;;9.38;100.00;100415.63;5016574;28;20204;-70
2022/09/30 09:02:44;;;;;;;32.03;17.73;;;;;;;9.53;100.00;100406.56;4998632;28;20229;-70
2022/09/30 09:05:19;;;;;;;32.77;18.03;;;;;;;9.54;100.00;100407.44;5011239;28;20428;-71
2022/09/30 09:07:55;;;;;;;32.53;17.00;;;;;;;9.51;100.00;100408.34;5018384;28;20344;-70
2022/09/30 09:10:33;;;;;;;26.57;15.97;;;;;;;9.54;100.00;100415.25;5015776;28;20238;-71
2022/09/30 09:13:09;;;;;;;22.83;14.90;;;;;;;9.64;100.00;100414.13;5017017;28;20346;-70
2022/09/30 09:15:48;;;;;;;26.00;14.40;;;;;;;9.67;100.00;100414.00;5004914;28;20210;-71
2022/09/30 09:18:29;;;;;;;23.97;13.90;;;;;;;9.74;100.00;100417.31;5019250;28;20201;-70
2022/09/30 09:20:59;;;;;;;21.00;14.33;;;;;;;9.77;100.00;100418.09;5014263;28;20698;-70
2022/09/30 09:23:27;;;;;;;20.37;12.00;;;;;;;9.91;100.00;100420.34;5019489;28;20219;-71
2022/09/30 09:25:54;;;;;;;15.87;10.80;;;;;;;10.03;100.00;100419.16;5014039;28;20197;-70
2022/09/30 09:28:35;;;;;;;15.17;10.77;;;;;;;10.17;100.00;100419.63;5013994;28;20772;-71
2022/09/30 09:31:04;;;;;;;18.47;9.93;;;;;;;10.37;100.00;100415.66;5000445;28;20241;-70
2022/09/30 09:33:35;;;;;;;15.30;9.77;;;;;;;10.50;100.00;100419.63;5013028;28;20222;-68
2022/09/30 09:36:11;;;;;;;14.60;9.17;;;;;;;10.59;100.00;100419.34;4999030;28;20426;-71
2022/09/30 09:38:53;;;;;;;11.40;8.30;;;;;;;10.70;100.00;100410.34;5016638;28;20299;-71
2022/09/30 09:41:31;;;;;;;13.77;7.23;;;;;;;10.76;100.00;100412.75;5017828;28;20585;-70
2022/09/30 09:44:04;;;;;;;10.00;7.43;;;;;;;10.90;100.00;100420.16;5016204;28;20296;-71
2022/09/30 09:46:37;;;;;;;11.90;6.93;;;;;;;11.08;100.00;100419.59;5016446;28;20202;-70
2022/09/30 09:49:30;;;;;;;11.57;7.40;;;;;;;11.17;100.00;100421.91;5014074;28;20241;-70
2022/09/30 09:52:11;;;;;;;10.10;6.97;;;;;;;11.39;100.00;100421.22;5018879;28;20538;-70
2022/09/30 09:54:41;;;;;;;12.57;7.37;;;;;;;11.43;100.00;100409.75;4991492;28;20236;-71
2022/09/30 09:57:09;;;;;;;11.83;6.57;;;;;;;11.51;100.00;100410.38;4991629;28;20290;-70
2022/09/30 09:59:36;;;;;;;14.63;7.10;;;;;;;11.74;100.00;100416.56;5015812;28;20584;-70
2022/09/30 10:02:22;;;;;;;11.43;8.10;;;;;;;11.88;100.00;100414.34;5017458;28;20759;-71
2022/09/30 10:04:58;;;;;;;9.70;6.10;;;;;;;12.04;100.00;100417.28;5017332;28;20210;-70
2022/09/30 10:07:26;;;;;;;8.53;6.07;;;;;;;12.19;100.00;100423.75;5016246;28;20199;-71
2022/09/30 10:10:07;;;;;;;8.43;5.90;;;;;;;12.21;100.00;100408.88;5017373;28;20204;-71
2022/09/30 10:12:34;;;;;;;9.57;6.00;;;;;;;12.20;100.00;100408.91;5017877;28;20227;-70
2022/09/30 10:15:04;;;;;;;7.60;5.73;;;;;;;12.39;100.00;100415.16;5018943;28;20204;-70
2022/09/30 10:17:34;;;;;;;6.17;4.73;;;;;;;12.57;100.00;100416.25;5018489;28;20250;-71
2022/09/30 10:20:06;;;;;;;5.97;4.43;;;;;;;12.64;100.00;100416.88;5018884;28;20200;-71
2022/09/30 10:22:34;;;;;;;9.60;4.43;;;;;;;12.66;100.00;100420.28;5002523;28;20256;-71
2022/09/30 10:25:16;;;;;;;7.17;4.60;;;;;;;12.76;100.00;100412.94;5015175;28;20196;-69
2022/09/30 10:27:48;;;;;;;7.00;4.10;;;;;;;12.82;100.00;100412.69;5023204;28;20216;-71
2022/09/30 10:30:30;;;;;;;7.17;4.93;;;;;;;12.93;100.00;100417.50;5014392;28;20717;-70
2022/09/30 10:33:02;;;;;;;5.27;4.37;;;;;;;13.02;100.00;100412.75;5017053;28;20576;-71
2022/09/30 10:35:28;;;;;;;5.93;4.57;;;;;;;13.03;100.00;100411.88;5011625;28;20208;-70
2022/09/30 10:37:59;;;;;;;5.60;3.20;;;;;;;13.16;100.00;100411.38;5013203;28;20199;-70
2022/09/30 10:40:28;;;;;;;7.57;3.33;;;;;;;13.16;100.00;100412.22;5011224;28;20196;-70
2022/09/30 10:42:55;;;;;;;4.90;3.70;;;;;;;13.24;100.00;100410.16;4996048;28;20213;-71
2022/09/30 10:45:24;;;;;;;6.37;3.43;;;;;;;13.30;100.00;100416.91;5019236;28;20204;-71
2022/09/30 10:47:54;;;;;;;5.23;3.43;;;;;;;13.35;100.00;100407.13;5022461;28;20221;-70
2022/09/30 10:50:26;;;;;;;5.60;3.93;;;;;;;13.41;100.00;100411.25;5017077;28;20210;-71
2022/09/30 10:52:57;;;;;;;6.93;3.40;;;;;;;13.47;100.00;100407.53;5019041;28;20226;-71
2022/09/30 10:55:31;;;;;;;4.37;3.50;;;;;;;13.53;100.00;100413.38;4995609;28;20803;-69
2022/09/30 10:58:19;;;;;;;6.57;3.77;;;;;;;13.62;100.00;100414.75;4997401;28;20220;-71
2022/09/30 11:00:49;;;;;;;5.30;3.67;;;;;;;13.67;100.00;100412.78;5014375;28;20197;-71
2022/09/30 11:03:20;;;;;;;4.87;3.30;;;;;;;13.71;100.00;100416.13;5018720;28;20217;-70
2022/09/30 11:05:49;;;;;;;4.23;3.13;;;;;;;13.74;100.00;100410.75;5023949;28;20198;-70
2022/09/30 11:08:20;;;;;;;4.57;3.13;;;;;;;13.77;100.00;100414.09;5023723;28;20230;-70
2022/09/30 11:10:53;;;;;;;6.10;3.00;;;;;;;13.82;100.00;100413.88;5012738;28;20315;-71
2022/09/30 11:13:26;;;;;;;3.97;3.00;;;;;;;14.04;100.00;100403.34;5017029;28;20612;-70
2022/09/30 11:16:01;;;;;;;5.50;3.53;;;;;;;14.13;100.00;100402.91;5017130;28;20213;-71
2022/09/30 11:18:34;;;;;;;4.47;3.23;;;;;;;14.12;100.00;100414.31;5020749;28;20208;-70
2022/09/30 11:21:09;;;;;;;3.60;2.73;;;;;;;14.14;100.00;100409.88;5023411;28;20210;-70
2022/09/30 11:23:41;;;;;;;3.40;2.37;;;;;;;14.32;100.00;100407.34;5016913;28;20218;-70
2022/09/30 11:26:18;;;;;;;3.47;2.47;;;;;;;14.36;100.00;100414.16;5011202;28;20206;-70
2022/09/30 11:29:05;;;;;;;5.17;2.70;;;;;;;14.38;100.00;100414.94;5016004;28;20632;-70
2022/09/30 11:31:36;;;;;;;3.00;2.23;;;;;;;14.46;100.00;100410.19;5014903;28;20218;-71
2022/09/30 11:34:15;;;;;;;2.40;2.10;;;;;;;14.54;100.00;100412.47;5021017;28;20756;-69
2022/09/30 11:36:51;;;;;;;3.47;2.33;;;;;;;14.53;100.00;100413.41;5012781;28;20199;-70